Time;durP1;ratioP1;P1;durP2;ratioP2;P2;SDS_P1;SDS_P2;PMS_P1;PMS_P2;Temp;Humidity;BMP_temperature;BMP_pressure;BME280_temperature;BME280_humidity;BME280_pressure;Samples;Min_cycle;Max_cycle;Signal;HPM_P1;HPM_P2
2021/10/22 00:00:35;;;;;;;3.00;1.17;;;;;;;;;;5053814;28;20402;-63
2021/10/22 00:03:01;;;;;;;3.10;1.23;;;;;;;;;;5053188;28;20453;-63
2021/10/22 00:05:27;;;;;;;2.70;0.97;;;;;;;;;;5053275;28;20463;-63
2021/10/22 00:07:53;;;;;;;2.43;1.20;;;;;;;;;;5053260;28;20396;-63
2021/10/22 00:10:19;;;;;;;2.43;1.20;;;;;;;;;;5053356;28;20429;-63
2021/10/22 00:12:46;;;;;;;2.10;1.10;;;;;;;;;;5053048;28;20406;-64
2021/10/22 00:15:12;;;;;;;4.90;1.23;;;;;;;;;;5061181;28;20413;-64
2021/10/22 00:17:38;;;;;;;2.50;1.20;;;;;;;;;;5073339;28;20488;-63
2021/10/22 00:20:06;;;;;;;1.87;1.10;;;;;;;;;;5073565;28;20409;-63
2021/10/22 00:22:32;;;;;;;4.10;1.40;;;;;;;;;;5072969;28;20493;-63
2021/10/22 00:24:58;;;;;;;4.80;1.33;;;;;;;;;;5073172;28;20838;-63
2021/10/22 00:27:24;;;;;;;4.87;1.40;;;;;;;;;;5073216;28;20857;-62
2021/10/22 00:29:50;;;;;;;4.77;1.17;;;;;;;;;;5073480;28;20405;-64
2021/10/22 00:32:16;;;;;;;3.10;0.90;;;;;;;;;;5073484;28;20405;-63
2021/10/22 00:34:42;;;;;;;2.23;1.00;;;;;;;;;;5069940;28;20436;-63
2021/10/22 00:37:08;;;;;;;3.30;1.60;;;;;;;;;;5069707;28;20416;-65
2021/10/22 00:39:34;;;;;;;3.53;1.27;;;;;;;;;;5072561;28;20419;-63
2021/10/22 00:42:00;;;;;;;4.30;1.50;;;;;;;;;;5071156;28;20457;-63
2021/10/22 00:44:26;;;;;;;1.73;0.90;;;;;;;;;;5072657;28;20436;-63
2021/10/22 00:46:56;;;;;;;4.43;1.17;;;;;;;;;;5072475;28;20407;-64
2021/10/22 00:49:22;;;;;;;3.67;1.10;;;;;;;;;;5062168;28;20401;-62
2021/10/22 00:51:48;;;;;;;2.10;1.20;;;;;;;;;;5034766;28;20751;-63
2021/10/22 00:54:14;;;;;;;1.93;0.90;;;;;;;;;;5052431;28;20417;-63
2021/10/22 00:56:40;;;;;;;4.73;1.30;;;;;;;;;;5034424;28;20472;-63
2021/10/22 00:59:07;;;;;;;3.53;1.23;;;;;;;;;;5052453;28;20464;-62
2021/10/22 01:01:40;;;;;;;2.63;1.77;;;;;;;;;;5051476;28;20453;-63
2021/10/22 01:04:07;;;;;;;4.63;1.20;;;;;;;;;;5052095;28;20437;-63
2021/10/22 01:06:37;;;;;;;3.33;1.13;;;;;;;;;;5052357;28;20973;-63
2021/10/22 01:09:05;;;;;;;9.50;1.37;;;;;;;;;;5052342;28;20393;-63
2021/10/22 01:11:31;;;;;;;2.87;1.20;;;;;;;;;;5052410;28;20492;-63
2021/10/22 01:13:57;;;;;;;2.90;1.20;;;;;;;;;;5052323;28;20465;-61
2021/10/22 01:16:23;;;;;;;7.13;1.57;;;;;;;;;;5052281;28;20410;-63
2021/10/22 01:18:50;;;;;;;2.73;1.30;;;;;;;;;;5052282;28;20452;-63
2021/10/22 01:21:16;;;;;;;3.00;1.10;;;;;;;;;;5052039;28;20504;-63
2021/10/22 01:23:42;;;;;;;6.90;1.33;;;;;;;;;;5052405;28;20471;-63
2021/10/22 01:26:08;;;;;;;3.77;1.40;;;;;;;;;;5034255;28;20433;-63
2021/10/22 01:28:35;;;;;;;2.17;1.20;;;;;;;;;;5052142;28;20406;-63
2021/10/22 01:31:01;;;;;;;5.80;2.10;;;;;;;;;;5052043;28;20412;-63
2021/10/22 01:33:27;;;;;;;7.10;1.50;;;;;;;;;;5052321;28;20432;-63
2021/10/22 01:35:53;;;;;;;4.40;1.50;;;;;;;;;;5051933;28;20406;-63
2021/10/22 01:38:21;;;;;;;4.07;1.57;;;;;;;;;;5052188;28;20429;-63
2021/10/22 01:40:49;;;;;;;4.93;1.40;;;;;;;;;;5052208;28;20460;-63
2021/10/22 01:43:16;;;;;;;3.93;1.47;;;;;;;;;;5051951;28;20974;-63
2021/10/22 01:45:42;;;;;;;4.73;1.20;;;;;;;;;;5047408;28;20428;-63
2021/10/22 01:48:08;;;;;;;4.00;1.20;;;;;;;;;;5056444;28;20409;-64
2021/10/22 01:50:34;;;;;;;3.77;1.33;;;;;;;;;;5052068;28;20813;-63
2021/10/22 01:53:00;;;;;;;5.20;1.07;;;;;;;;;;5064190;28;20735;-63
2021/10/22 01:55:26;;;;;;;2.43;1.33;;;;;;;;;;5072053;28;20480;-63
2021/10/22 01:57:52;;;;;;;6.00;2.13;;;;;;;;;;5071923;28;20881;-64
2021/10/22 02:00:19;;;;;;;5.90;1.57;;;;;;;;;;5071854;28;20756;-64
2021/10/22 02:02:45;;;;;;;5.67;1.97;;;;;;;;;;5071837;28;20455;-64
2021/10/22 02:05:11;;;;;;;6.63;1.70;;;;;;;;;;5052607;28;20401;-64
2021/10/22 02:07:37;;;;;;;4.47;1.43;;;;;;;;;;5071927;28;20397;-64
2021/10/22 02:10:04;;;;;;;2.50;1.53;;;;;;;;;;5071919;28;20408;-64
2021/10/22 02:12:30;;;;;;;5.33;1.40;;;;;;;;;;5059225;28;20832;-64
2021/10/22 02:14:56;;;;;;;3.13;1.40;;;;;;;;;;5075246;28;20946;-63
2021/10/22 02:17:22;;;;;;;3.10;1.17;;;;;;;;;;5072775;28;20416;-64
2021/10/22 02:19:48;;;;;;;3.10;1.53;;;;;;;;;;5075036;28;20400;-65
2021/10/22 02:22:15;;;;;;;4.23;1.47;;;;;;;;;;5075105;28;20514;-67
2021/10/22 02:24:41;;;;;;;2.33;1.23;;;;;;;;;;5055191;28;20430;-63
2021/10/22 02:27:07;;;;;;;3.07;1.70;;;;;;;;;;5056777;28;20436;-64
2021/10/22 02:29:33;;;;;;;3.13;1.80;;;;;;;;;;5075023;28;20452;-63
2021/10/22 02:31:59;;;;;;;3.87;1.57;;;;;;;;;;5057153;28;20482;-63
2021/10/22 02:34:25;;;;;;;3.73;1.70;;;;;;;;;;5072497;28;20424;-63
2021/10/22 02:36:52;;;;;;;2.00;1.47;;;;;;;;;;5075174;28;20405;-63
2021/10/22 02:39:18;;;;;;;4.17;1.20;;;;;;;;;;5075068;28;20878;-65
2021/10/22 02:41:47;;;;;;;2.93;1.20;;;;;;;;;;5074705;28;20452;-65
2021/10/22 02:44:13;;;;;;;4.80;1.87;;;;;;;;;;5074594;28;20421;-64
2021/10/22 02:46:39;;;;;;;2.47;1.30;;;;;;;;;;5069453;28;20406;-64
2021/10/22 02:49:06;;;;;;;1.87;1.00;;;;;;;;;;5076876;28;20406;-65
2021/10/22 02:51:32;;;;;;;2.53;1.20;;;;;;;;;;5068349;28;20423;-64
2021/10/22 02:53:58;;;;;;;4.47;1.63;;;;;;;;;;5074354;28;20421;-63
2021/10/22 02:56:24;;;;;;;2.17;1.23;;;;;;;;;;5075031;28;20407;-63
2021/10/22 02:58:50;;;;;;;2.20;1.30;;;;;;;;;;5074688;28;20415;-64
2021/10/22 03:01:17;;;;;;;1.77;1.00;;;;;;;;;;5074157;28;20452;-65
2021/10/22 03:03:43;;;;;;;2.30;1.07;;;;;;;;;;5071623;28;20503;-65
2021/10/22 03:06:09;;;;;;;2.73;1.30;;;;;;;;;;5074652;28;20742;-64
2021/10/22 03:08:36;;;;;;;2.80;1.90;;;;;;;;;;5072812;28;20488;-64
2021/10/22 03:11:02;;;;;;;5.60;1.80;;;;;;;;;;5074329;28;20455;-64
2021/10/22 03:13:28;;;;;;;6.43;1.50;;;;;;;;;;5073762;28;20424;-64
2021/10/22 03:15:55;;;;;;;1.60;1.10;;;;;;;;;;5071947;28;20402;-65
2021/10/22 03:18:21;;;;;;;2.70;1.40;;;;;;;;;;5063220;28;20400;-63
2021/10/22 03:20:47;;;;;;;2.27;1.30;;;;;;;;;;5073933;28;20428;-64
2021/10/22 03:23:13;;;;;;;1.80;1.17;;;;;;;;;;5073768;28;20971;-64
2021/10/22 03:25:39;;;;;;;1.90;1.47;;;;;;;;;;5055127;28;20401;-64
2021/10/22 03:28:05;;;;;;;3.00;1.60;;;;;;;;;;5074047;28;20398;-63
2021/10/22 03:30:32;;;;;;;5.60;1.50;;;;;;;;;;5074024;28;20393;-63
2021/10/22 03:32:58;;;;;;;4.00;1.70;;;;;;;;;;5073786;28;20412;-64
2021/10/22 03:35:24;;;;;;;2.70;1.57;;;;;;;;;;5073800;28;20411;-64
2021/10/22 03:37:51;;;;;;;4.57;1.40;;;;;;;;;;5073774;28;20876;-63
2021/10/22 03:40:17;;;;;;;2.73;1.47;;;;;;;;;;5073872;28;20412;-63
2021/10/22 03:42:43;;;;;;;5.60;1.90;;;;;;;;;;5073907;28;20560;-65
2021/10/22 03:45:10;;;;;;;3.10;2.10;;;;;;;;;;5074075;28;20968;-65
2021/10/22 03:47:36;;;;;;;2.73;1.90;;;;;;;;;;5060259;28;20406;-64
2021/10/22 03:50:02;;;;;;;4.50;1.77;;;;;;;;;;5054069;28;20429;-64
2021/10/22 03:52:28;;;;;;;2.47;1.40;;;;;;;;;;5035767;28;20409;-63
2021/10/22 03:54:54;;;;;;;3.07;1.93;;;;;;;;;;5053673;28;20425;-63
2021/10/22 03:57:20;;;;;;;1.93;1.40;;;;;;;;;;5052798;28;20425;-65
2021/10/22 03:59:46;;;;;;;2.60;1.97;;;;;;;;;;5053383;28;20409;-64
2021/10/22 04:02:12;;;;;;;2.70;2.20;;;;;;;;;;5053266;28;20456;-64
2021/10/22 04:04:39;;;;;;;2.63;2.00;;;;;;;;;;5035378;28;20429;-64
2021/10/22 04:07:05;;;;;;;4.03;2.13;;;;;;;;;;5053281;28;20410;-63
2021/10/22 04:09:32;;;;;;;5.07;2.63;;;;;;;;;;5053531;28;20900;-64
2021/10/22 04:11:59;;;;;;;2.20;1.93;;;;;;;;;;5053353;28;20471;-63
2021/10/22 04:14:25;;;;;;;2.60;2.10;;;;;;;;;;5053407;28;20796;-63
2021/10/22 04:16:51;;;;;;;3.40;2.10;;;;;;;;;;5053550;28;20974;-63
2021/10/22 04:19:17;;;;;;;2.37;2.03;;;;;;;;;;5052966;28;20410;-63
2021/10/22 04:21:44;;;;;;;2.73;1.97;;;;;;;;;;5052798;28;20835;-63
2021/10/22 04:24:10;;;;;;;3.03;2.23;;;;;;;;;;5052932;28;20421;-63
2021/10/22 04:26:36;;;;;;;2.07;1.87;;;;;;;;;;5053216;28;20448;-63
2021/10/22 04:29:02;;;;;;;3.30;2.20;;;;;;;;;;5053389;28;20765;-63
2021/10/22 04:31:28;;;;;;;2.33;2.13;;;;;;;;;;5053149;28;20441;-62
2021/10/22 04:33:54;;;;;;;4.30;2.73;;;;;;;;;;5052815;28;20421;-63
2021/10/22 04:36:20;;;;;;;3.50;2.60;;;;;;;;;;5052897;28;20409;-63
2021/10/22 04:41:31;;;;;;;4.30;3.47;;;;;;;;;;5052952;28;20536;-64
2021/10/22 04:43:57;;;;;;;6.33;3.37;;;;;;;;;;5052654;28;20445;-63
2021/10/22 04:46:23;;;;;;;2.80;2.30;;;;;;;;;;5053009;28;20406;-63
2021/10/22 04:48:49;;;;;;;4.73;2.53;;;;;;;;;;5052883;28;20772;-64
2021/10/22 04:51:15;;;;;;;6.10;2.30;;;;;;;;;;5052844;28;20870;-64
2021/10/22 04:53:41;;;;;;;5.80;2.63;;;;;;;;;;5052426;28;20433;-65
2021/10/22 04:56:07;;;;;;;9.90;3.50;;;;;;;;;;5052644;28;20406;-64
2021/10/22 04:58:34;;;;;;;4.53;3.27;;;;;;;;;;5065274;28;20895;-62
2021/10/22 05:01:00;;;;;;;7.77;3.30;;;;;;;;;;5052595;28;20405;-64
2021/10/22 05:03:26;;;;;;;4.10;2.90;;;;;;;;;;5052709;28;20453;-65
2021/10/22 05:05:53;;;;;;;5.43;2.60;;;;;;;;;;5052623;28;20997;-64
2021/10/22 05:08:19;;;;;;;8.10;3.73;;;;;;;;;;5052646;28;20484;-64
2021/10/22 05:10:45;;;;;;;5.40;3.70;;;;;;;;;;5035008;28;20421;-64
2021/10/22 05:13:11;;;;;;;5.87;3.63;;;;;;;;;;5052635;28;20433;-65
2021/10/22 05:15:37;;;;;;;6.13;3.47;;;;;;;;;;5052653;28;20414;-66
2021/10/22 05:18:03;;;;;;;5.77;3.70;;;;;;;;;;5052594;28;20406;-66
2021/10/22 05:20:29;;;;;;;6.63;3.40;;;;;;;;;;5067117;28;20413;-64
2021/10/22 05:22:55;;;;;;;4.60;3.53;;;;;;;;;;5072376;28;20441;-65
2021/10/22 05:25:21;;;;;;;6.70;3.83;;;;;;;;;;5054676;28;20409;-65
2021/10/22 05:27:48;;;;;;;5.67;3.70;;;;;;;;;;5072305;28;20488;-64
2021/10/22 05:30:15;;;;;;;8.30;4.50;;;;;;;;;;5072759;28;20945;-64
2021/10/22 05:32:42;;;;;;;6.10;4.03;;;;;;;;;;5072676;28;20483;-64
2021/10/22 05:35:09;;;;;;;7.37;4.00;;;;;;;;;;5072359;28;20489;-65
2021/10/22 05:37:35;;;;;;;4.40;3.50;;;;;;;;;;5072349;28;20423;-66
2021/10/22 05:40:01;;;;;;;11.23;3.93;;;;;;;;;;5072498;28;20816;-64
2021/10/22 05:42:27;;;;;;;5.60;4.40;;;;;;;;;;5072199;28;20463;-64
2021/10/22 05:44:53;;;;;;;9.43;5.13;;;;;;;;;;5064721;28;20426;-63
2021/10/22 05:47:20;;;;;;;5.93;3.73;;;;;;;;;;5052854;28;20926;-63
2021/10/22 05:49:47;;;;;;;6.70;4.47;;;;;;;;;;5056089;28;20455;-63
2021/10/22 05:52:13;;;;;;;5.63;3.90;;;;;;;;;;5055836;28;20428;-63
2021/10/22 05:54:39;;;;;;;8.60;4.03;;;;;;;;;;5056079;28;20907;-63
2021/10/22 05:57:05;;;;;;;5.50;4.10;;;;;;;;;;5055745;28;20902;-63
2021/10/22 05:59:31;;;;;;;5.10;3.83;;;;;;;;;;5055857;28;20770;-63
2021/10/22 06:01:57;;;;;;;6.00;4.40;;;;;;;;;;5055696;28;20445;-63
2021/10/22 06:04:23;;;;;;;8.53;4.20;;;;;;;;;;5062377;28;20486;-64
2021/10/22 06:06:50;;;;;;;13.53;4.63;;;;;;;;;;5076028;28;20483;-63
2021/10/22 06:09:16;;;;;;;7.83;4.47;;;;;;;;;;5075940;28;20426;-63
2021/10/22 06:11:42;;;;;;;10.30;4.53;;;;;;;;;;5075500;28;20416;-65
2021/10/22 06:14:08;;;;;;;9.03;4.80;;;;;;;;;;5075656;28;20436;-63
2021/10/22 06:16:34;;;;;;;11.00;4.93;;;;;;;;;;5075504;28;20495;-64
2021/10/22 06:19:04;;;;;;;9.57;4.30;;;;;;;;;;5075389;28;20397;-63
2021/10/22 06:21:40;;;;;;;6.23;4.27;;;;;;;;;;5075348;28;20499;-64
2021/10/22 06:24:06;;;;;;;7.83;4.13;;;;;;;;;;5075110;28;20932;-64
2021/10/22 06:26:35;;;;;;;9.57;4.60;;;;;;;;;;5075218;28;20881;-64
2021/10/22 06:29:02;;;;;;;6.83;3.93;;;;;;;;;;5057258;28;20419;-63
2021/10/22 06:31:28;;;;;;;6.70;3.93;;;;;;;;;;5075006;28;20778;-63
2021/10/22 06:33:54;;;;;;;9.03;4.37;;;;;;;;;;5056721;28;20441;-63
2021/10/22 06:36:21;;;;;;;6.40;3.70;;;;;;;;;;5075060;28;20401;-63
2021/10/22 06:38:47;;;;;;;5.90;4.17;;;;;;;;;;5075317;28;20443;-63
2021/10/22 06:41:13;;;;;;;6.50;4.23;;;;;;;;;;5074907;28;20526;-64
2021/10/22 06:43:40;;;;;;;6.43;4.40;;;;;;;;;;5067154;28;20911;-64
2021/10/22 06:46:07;;;;;;;6.03;3.70;;;;;;;;;;5055008;28;20398;-63
2021/10/22 06:48:34;;;;;;;8.27;3.90;;;;;;;;;;5054930;28;20402;-63
2021/10/22 06:51:01;;;;;;;7.77;3.97;;;;;;;;;;5036738;28;20538;-64
2021/10/22 06:53:27;;;;;;;6.83;4.17;;;;;;;;;;5054465;28;20418;-64
2021/10/22 06:55:53;;;;;;;6.20;4.57;;;;;;;;;;5055983;28;20417;-66
2021/10/22 06:58:19;;;;;;;7.83;4.87;;;;;;;;;;5065755;28;20423;-64
2021/10/22 07:00:49;;;;;;;5.30;4.30;;;;;;;;;;5065248;28;20424;-65
2021/10/22 07:03:19;;;;;;;6.47;4.57;;;;;;;;;;5066106;28;20475;-64
2021/10/22 07:08:12;;;;;;;6.30;4.03;;;;;;;;;;5068965;28;20429;-65
2021/10/22 07:10:39;;;;;;;5.40;3.87;;;;;;;;;;5073408;28;20428;-65
2021/10/22 07:13:05;;;;;;;5.00;4.13;;;;;;;;;;5049748;28;20783;-64
2021/10/22 07:15:31;;;;;;;6.13;4.00;;;;;;;;;;5068958;28;20784;-63
2021/10/22 07:17:59;;;;;;;7.67;3.90;;;;;;;;;;5066292;28;20421;-63
2021/10/22 07:20:26;;;;;;;6.40;4.70;;;;;;;;;;5071264;28;20425;-64
2021/10/22 07:22:54;;;;;;;5.30;2.77;;;;;;;;;;5072945;28;20463;-65
2021/10/22 07:25:21;;;;;;;6.90;3.53;;;;;;;;;;5067265;28;20425;-64
2021/10/22 07:27:48;;;;;;;3.20;2.33;;;;;;;;;;5064004;28;20600;-64
2021/10/22 07:30:15;;;;;;;10.67;3.00;;;;;;;;;;5071746;28;20937;-73
2021/10/22 07:32:41;;;;;;;5.80;2.80;;;;;;;;;;5058545;28;20462;-72
2021/10/22 07:35:09;;;;;;;5.17;2.60;;;;;;;;;;5073393;28;20443;-63
2021/10/22 07:37:35;;;;;;;3.97;2.83;;;;;;;;;;5070638;28;20520;-66
2021/10/22 07:40:02;;;;;;;9.07;3.03;;;;;;;;;;5058642;28;20531;-65
2021/10/22 07:42:29;;;;;;;8.87;3.63;;;;;;;;;;5066559;28;20811;-64
2021/10/22 07:44:59;;;;;;;5.70;2.70;;;;;;;;;;5091542;22;20479;-67
2021/10/22 07:47:25;;;;;;;5.77;2.50;;;;;;;;;;5082166;28;20900;-67
2021/10/22 07:49:52;;;;;;;13.13;2.87;;;;;;;;;;5089603;28;20895;-68
2021/10/22 07:52:19;;;;;;;4.83;2.30;;;;;;;;;;5081459;28;20488;-67
2021/10/22 07:54:46;;;;;;;5.57;2.87;;;;;;;;;;5083329;28;20431;-67
2021/10/22 07:57:12;;;;;;;5.40;2.60;;;;;;;;;;5100805;28;20403;-67
2021/10/22 07:59:38;;;;;;;6.77;2.90;;;;;;;;;;5113517;28;20490;-67
2021/10/22 08:02:14;;;;;;;10.27;2.90;;;;;;;;;;5107161;28;20453;-68
2021/10/22 08:04:47;;;;;;;10.17;2.63;;;;;;;;;;5095326;28;20427;-67
2021/10/22 08:07:16;;;;;;;5.83;3.50;;;;;;;;;;5101873;28;20410;-67
2021/10/22 08:09:42;;;;;;;8.90;3.80;;;;;;;;;;5114349;28;20415;-66
2021/10/22 08:12:08;;;;;;;4.93;3.07;;;;;;;;;;5099529;28;20449;-66
2021/10/22 08:14:34;;;;;;;9.27;3.40;;;;;;;;;;5097539;28;20439;-67
2021/10/22 08:17:01;;;;;;;6.90;3.60;;;;;;;;;;5106339;28;20869;-67
2021/10/22 08:19:27;;;;;;;7.37;3.80;;;;;;;;;;5106632;28;20441;-66
2021/10/22 08:24:39;;;;;;;5.67;3.70;;;;;;;;;;5111060;28;20437;-67
2021/10/22 08:27:07;;;;;;;6.27;3.53;;;;;;;;;;5112879;28;20395;-66
2021/10/22 08:29:33;;;;;;;9.27;3.37;;;;;;;;;;5112710;28;20407;-67
2021/10/22 08:32:00;;;;;;;4.30;3.30;;;;;;;;;;5094661;28;20410;-67
2021/10/22 08:34:27;;;;;;;13.43;3.87;;;;;;;;;;5111909;28;20906;-68
2021/10/22 08:36:53;;;;;;;6.90;3.40;;;;;;;;;;5105441;28;20493;-66
2021/10/22 08:39:19;;;;;;;7.50;3.80;;;;;;;;;;5099768;28;20407;-67
2021/10/22 08:41:47;;;;;;;6.13;3.00;;;;;;;;;;5100229;28;20451;-66
2021/10/22 08:44:14;;;;;;;6.43;3.50;;;;;;;;;;5095718;28;20521;-67
2021/10/22 08:46:42;;;;;;;5.53;2.90;;;;;;;;;;5105964;28;20411;-67
2021/10/22 08:49:14;;;;;;;5.00;3.00;;;;;;;;;;5097920;28;20404;-66
2021/10/22 08:51:41;;;;;;;10.60;3.73;;;;;;;;;;5099885;28;20408;-68
2021/10/22 08:54:09;;;;;;;5.53;3.17;;;;;;;;;;5098914;28;20412;-67
2021/10/22 08:56:35;;;;;;;6.33;3.37;;;;;;;;;;5102057;28;20452;-66
2021/10/22 08:59:02;;;;;;;5.73;3.57;;;;;;;;;;5106124;28;20419;-67
2021/10/22 09:01:28;;;;;;;4.20;3.17;;;;;;;;;;5092873;28;20436;-67
2021/10/22 09:03:55;;;;;;;4.70;3.30;;;;;;;;;;5096457;28;20937;-67
2021/10/22 09:06:21;;;;;;;5.13;3.00;;;;;;;;;;5112383;28;20779;-66
2021/10/22 09:08:53;;;;;;;8.70;3.83;;;;;;;;;;5095716;28;20744;-67
2021/10/22 09:11:23;;;;;;;3.90;2.60;;;;;;;;;;5095020;28;20471;-67
2021/10/22 09:14:04;;;;;;;5.10;3.13;;;;;;;;;;5098369;28;20469;-66
2021/10/22 09:16:30;;;;;;;4.00;2.80;;;;;;;;;;5092756;28;20418;-66
2021/10/22 09:18:57;;;;;;;8.10;3.00;;;;;;;;;;5095697;28;20487;-66
2021/10/22 09:21:27;;;;;;;5.70;3.03;;;;;;;;;;5107931;28;20490;-66
2021/10/22 09:24:12;;;;;;;8.50;3.30;;;;;;;;;;5105301;28;20408;-67
2021/10/22 09:26:38;;;;;;;3.53;2.33;;;;;;;;;;5114594;28;20433;-67
2021/10/22 09:29:18;;;;;;;5.50;2.70;;;;;;;;;;5113834;28;20429;-67
2021/10/22 09:31:44;;;;;;;6.87;3.80;;;;;;;;;;5107376;28;21057;-66
2021/10/22 09:34:11;;;;;;;4.20;2.83;;;;;;;;;;5114230;27;20421;-67
2021/10/22 09:36:38;;;;;;;3.10;2.20;;;;;;;;;;5111435;28;20398;-66
2021/10/22 09:39:19;;;;;;;4.60;2.93;;;;;;;;;;5108042;28;20399;-67
2021/10/22 09:41:52;;;;;;;10.03;2.90;;;;;;;;;;5097039;28;20526;-66
2021/10/22 09:44:23;;;;;;;3.07;1.80;;;;;;;;;;5098891;28;20411;-67
2021/10/22 09:46:52;;;;;;;5.53;2.07;;;;;;;;;;5114326;28;20487;-67
2021/10/22 09:49:28;;;;;;;5.60;2.40;;;;;;;;;;5116971;28;20453;-67
2021/10/22 09:51:57;;;;;;;4.73;2.50;;;;;;;;;;5117498;28;20481;-67
2021/10/22 09:54:32;;;;;;;2.90;2.20;;;;;;;;;;5109503;28;20494;-67
2021/10/22 09:57:04;;;;;;;3.30;2.57;;;;;;;;;;5116716;28;20422;-66
2021/10/22 09:59:30;;;;;;;3.77;2.23;;;;;;;;;;5116922;28;20394;-66
2021/10/22 10:01:57;;;;;;;3.90;2.13;;;;;;;;;;5117143;28;20460;-66
2021/10/22 10:04:24;;;;;;;5.70;2.20;;;;;;;;;;5083088;28;20408;-66
2021/10/22 10:06:50;;;;;;;5.50;2.37;;;;;;;;;;5095885;28;20408;-66
2021/10/22 10:09:17;;;;;;;10.73;3.20;;;;;;;;;;5096330;28;20404;-67
2021/10/22 10:11:44;;;;;;;2.90;2.60;;;;;;;;;;5096498;28;20959;-66
2021/10/22 10:14:14;;;;;;;8.30;2.43;;;;;;;;;;5115244;28;20438;-66
2021/10/22 10:16:41;;;;;;;4.03;2.70;;;;;;;;;;5114932;28;20789;-66
2021/10/22 10:19:07;;;;;;;4.53;2.47;;;;;;;;;;5115058;28;20419;-67
2021/10/22 10:21:34;;;;;;;7.93;2.60;;;;;;;;;;5116320;28;20440;-67
2021/10/22 10:24:01;;;;;;;4.17;2.47;;;;;;;;;;5101547;28;20431;-67
2021/10/22 10:26:32;;;;;;;6.80;2.50;;;;;;;;;;5095766;28;20476;-67
2021/10/22 10:28:59;;;;;;;4.67;2.90;;;;;;;;;;5103367;28;20414;-67
2021/10/22 10:31:35;;;;;;;3.53;2.73;;;;;;;;;;5116215;28;20830;-67
2021/10/22 10:34:20;;;;;;;3.93;2.50;;;;;;;;;;5114595;28;20413;-67
2021/10/22 10:36:56;;;;;;;6.43;2.50;;;;;;;;;;5116306;28;20463;-67
2021/10/22 10:39:49;;;;;;;5.43;2.33;;;;;;;;;;5116120;28;20825;-67
2021/10/22 10:42:15;;;;;;;3.27;2.20;;;;;;;;;;5112863;28;20533;-67
2021/10/22 10:44:41;;;;;;;5.43;2.90;;;;;;;;;;5095219;28;20494;-68
2021/10/22 10:47:25;;;;;;;5.87;2.80;;;;;;;;;;5096967;28;20968;-68
2021/10/22 10:49:51;;;;;;;5.83;2.57;;;;;;;;;;5097365;28;20771;-67
2021/10/22 10:52:40;;;;;;;6.73;2.50;;;;;;;;;;5097843;28;20396;-68
2021/10/22 10:55:13;;;;;;;8.97;2.77;;;;;;;;;;5114242;28;20970;-68
2021/10/22 10:57:51;;;;;;;5.20;2.20;;;;;;;;;;5082042;28;20453;-68
2021/10/22 11:00:19;;;;;;;7.23;2.63;;;;;;;;;;5102523;28;20414;-67
2021/10/22 11:03:06;;;;;;;4.30;2.80;;;;;;;;;;5099028;28;20798;-68
2021/10/22 11:05:48;;;;;;;9.83;2.77;;;;;;;;;;5107231;28;20434;-68
2021/10/22 11:08:19;;;;;;;6.43;2.93;;;;;;;;;;5096177;28;20900;-67
2021/10/22 11:11:05;;;;;;;6.10;2.30;;;;;;;;;;5096115;28;20399;-68
2021/10/22 11:13:54;;;;;;;8.80;2.20;;;;;;;;;;5078352;28;20496;-67
2021/10/22 11:16:21;;;;;;;5.20;2.17;;;;;;;;;;5091626;28;20818;-67
2021/10/22 11:18:49;;;;;;;4.33;3.80;;;;;;;;;;5111710;28;20411;-69
2021/10/22 11:21:15;;;;;;;15.97;2.33;;;;;;;;;;5101999;28;20465;-67
2021/10/22 11:23:41;;;;;;;6.30;2.30;;;;;;;;;;5109638;28;20399;-68
2021/10/22 11:26:13;;;;;;;6.03;3.37;;;;;;;;;;5114634;28;20820;-68
2021/10/22 11:28:39;;;;;;;5.20;2.73;;;;;;;;;;5102280;28;20529;-68
2021/10/22 11:31:05;;;;;;;4.40;2.17;;;;;;;;;;5108592;28;20407;-68
2021/10/22 11:33:32;;;;;;;5.50;2.90;;;;;;;;;;5110406;28;20416;-67
2021/10/22 11:35:58;;;;;;;5.07;2.50;;;;;;;;;;5107695;28;20784;-71
2021/10/22 11:38:25;;;;;;;7.13;2.70;;;;;;;;;;5122438;27;20441;-67
2021/10/22 11:40:51;;;;;;;5.03;2.27;;;;;;;;;;5114497;28;20430;-67
2021/10/22 11:43:18;;;;;;;9.13;2.33;;;;;;;;;;5111503;28;20443;-67
2021/10/22 11:45:46;;;;;;;8.23;2.40;;;;;;;;;;5113652;28;20434;-67
2021/10/22 11:48:13;;;;;;;3.87;2.27;;;;;;;;;;5114616;28;21284;-67
2021/10/22 11:50:39;;;;;;;6.37;2.10;;;;;;;;;;5114788;28;20761;-67
2021/10/22 11:53:14;;;;;;;3.40;1.97;;;;;;;;;;5114550;28;20407;-68
2021/10/22 11:55:49;;;;;;;5.60;2.10;;;;;;;;;;5114310;28;20425;-67
2021/10/22 11:58:18;;;;;;;7.40;2.67;;;;;;;;;;5114224;28;20405;-67
2021/10/22 12:00:57;;;;;;;4.67;2.97;;;;;;;;;;5114044;28;20411;-67
2021/10/22 12:03:26;;;;;;;5.43;3.80;;;;;;;;;;5113981;28;20447;-69
2021/10/22 12:05:54;;;;;;;3.60;2.93;;;;;;;;;;5106732;28;20491;-68
2021/10/22 12:08:21;;;;;;;10.30;2.83;;;;;;;;;;5114726;27;20419;-67
2021/10/22 12:10:51;;;;;;;5.90;2.80;;;;;;;;;;5095711;28;20443;-67
2021/10/22 12:13:33;;;;;;;4.40;2.10;;;;;;;;;;5112341;28;20795;-67
2021/10/22 12:16:12;;;;;;;8.47;2.87;;;;;;;;;;5103829;28;20442;-69
2021/10/22 12:18:45;;;;;;;5.33;2.83;;;;;;;;;;5108794;28;20461;-68
2021/10/22 12:21:12;;;;;;;5.07;2.00;;;;;;;;;;5093763;28;20535;-68
2021/10/22 12:23:39;;;;;;;8.60;2.63;;;;;;;;;;5093603;28;20412;-67
2021/10/22 12:26:19;;;;;;;8.77;2.70;;;;;;;;;;5099196;28;20950;-67
2021/10/22 12:28:55;;;;;;;6.53;2.50;;;;;;;;;;5097487;28;20415;-67
2021/10/22 12:31:28;;;;;;;11.00;2.60;;;;;;;;;;5108197;28;20407;-68
2021/10/22 12:34:07;;;;;;;3.90;1.90;;;;;;;;;;5093073;28;20391;-69
2021/10/22 12:36:37;;;;;;;4.90;2.10;;;;;;;;;;5104555;28;20464;-67
2021/10/22 12:39:20;;;;;;;4.97;2.33;;;;;;;;;;5099263;28;20778;-67
2021/10/22 12:41:46;;;;;;;5.63;2.23;;;;;;;;;;5097689;28;20985;-69
2021/10/22 12:44:13;;;;;;;5.43;2.30;;;;;;;;;;5104827;27;20415;-67
2021/10/22 12:46:55;;;;;;;4.90;2.40;;;;;;;;;;5104674;28;20954;-67
2021/10/22 12:49:28;;;;;;;3.93;2.13;;;;;;;;;;5093430;28;20442;-68
2021/10/22 12:51:59;;;;;;;6.93;2.40;;;;;;;;;;5111293;28;20444;-68
2021/10/22 12:54:25;;;;;;;3.40;2.30;;;;;;;;;;5108563;28;20415;-66
2021/10/22 12:56:55;;;;;;;4.17;2.93;;;;;;;;;;5094280;28;20403;-68
2021/10/22 12:59:25;;;;;;;3.20;2.10;;;;;;;;;;5111453;28;20464;-67
2021/10/22 13:01:55;;;;;;;6.33;3.57;;;;;;;;;;5111352;28;20864;-68
2021/10/22 13:04:23;;;;;;;2.90;2.10;;;;;;;;;;5097807;28;20403;-67
2021/10/22 13:07:37;;;;;;;3.23;1.93;;;;;;;;;;5093116;28;20408;-67
2021/10/22 13:09:46;;;;;;;7.93;2.17;;;;;;;;;;5085798;28;20762;-67
2021/10/22 13:22:48;;;;;;;11.07;2.63;;;;;;;;;;5092976;28;20807;-67
2021/10/22 13:25:15;;;;;;;5.40;2.80;;;;;;;;;;5092886;28;20830;-67
2021/10/22 13:27:41;;;;;;;10.10;2.53;;;;;;;;;;5095143;28;20403;-68
2021/10/22 13:30:27;;;;;;;8.00;1.93;;;;;;;;;;5112286;28;20419;-67
2021/10/22 13:32:54;;;;;;;3.80;2.13;;;;;;;;;;5113592;28;20395;-67
2021/10/22 13:35:20;;;;;;;3.97;1.87;;;;;;;;;;5092984;28;20458;-67
2021/10/22 13:37:46;;;;;;;11.00;4.70;;;;;;;;;;5097573;28;20432;-68
2021/10/22 13:40:13;;;;;;;6.00;3.20;;;;;;;;;;5112873;28;20468;-67
2021/10/22 13:42:39;;;;;;;4.50;2.40;;;;;;;;;;5102981;28;20638;-67
2021/10/22 13:45:05;;;;;;;2.83;2.10;;;;;;;;;;5108010;28;20454;-67
2021/10/22 13:47:32;;;;;;;7.37;2.40;;;;;;;;;;5113272;28;20418;-67
2021/10/22 13:49:58;;;;;;;4.80;2.43;;;;;;;;;;5101710;28;21002;-68
2021/10/22 13:52:24;;;;;;;2.80;1.80;;;;;;;;;;5093881;28;20908;-67
2021/10/22 13:54:50;;;;;;;5.27;3.80;;;;;;;;;;5092112;28;20420;-68
2021/10/22 13:57:16;;;;;;;4.53;2.07;;;;;;;;;;5104745;28;20899;-67
2021/10/22 13:59:43;;;;;;;9.77;4.10;;;;;;;;;;5111814;28;20426;-67
2021/10/22 14:02:09;;;;;;;6.63;3.20;;;;;;;;;;5111042;28;20453;-67
2021/10/22 14:04:35;;;;;;;9.93;2.93;;;;;;;;;;5099906;28;20426;-67
2021/10/22 14:07:02;;;;;;;10.97;2.90;;;;;;;;;;5112809;28;20757;-67
2021/10/22 14:09:28;;;;;;;5.13;2.50;;;;;;;;;;5102988;28;20829;-67
2021/10/22 14:12:39;;;;;;;4.30;2.43;;;;;;;;;;5115603;28;20419;-68
2021/10/22 14:14:56;;;;;;;4.90;2.77;;;;;;;;;;5108106;28;20446;-66
2021/10/22 14:31:17;;;;;;;4.27;2.30;;;;;;;;;;5105053;28;20410;-67
2021/10/22 14:33:43;;;;;;;5.87;2.67;;;;;;;;;;5103768;28;20411;-66
2021/10/22 14:36:09;;;;;;;4.47;2.57;;;;;;;;;;5101199;28;20431;-67
2021/10/22 14:38:35;;;;;;;5.47;2.23;;;;;;;;;;5115912;28;20478;-67
2021/10/22 14:41:01;;;;;;;3.87;2.03;;;;;;;;;;5109072;28;20404;-66
2021/10/22 14:44:03;;;;;;;4.53;1.80;;;;;;;;;;5096587;28;20514;-67
2021/10/22 14:54:08;;;;;;;5.40;2.70;;;;;;;;;;5115171;28;20895;-67
2021/10/22 14:56:35;;;;;;;6.43;2.23;;;;;;;;;;5113961;28;20487;-67
2021/10/22 14:59:08;;;;;;;4.47;1.93;;;;;;;;;;5115398;27;20416;-67
2021/10/22 15:01:34;;;;;;;7.97;2.30;;;;;;;;;;5114968;28;20400;-67
2021/10/22 15:04:00;;;;;;;6.27;2.70;;;;;;;;;;5100814;28;20523;-67
2021/10/22 15:06:26;;;;;;;4.63;1.93;;;;;;;;;;5098153;28;20777;-66
2021/10/22 15:08:53;;;;;;;6.03;2.20;;;;;;;;;;5115855;28;20395;-66
2021/10/22 15:11:19;;;;;;;4.33;2.90;;;;;;;;;;5115687;28;20396;-66
2021/10/22 15:13:46;;;;;;;3.77;2.37;;;;;;;;;;5114609;28;20407;-67
2021/10/22 15:16:13;;;;;;;4.10;2.30;;;;;;;;;;5115341;28;20771;-67
2021/10/22 15:18:39;;;;;;;6.13;2.80;;;;;;;;;;5098401;28;20526;-67
2021/10/22 15:21:05;;;;;;;3.50;2.13;;;;;;;;;;5096412;28;20418;-67
2021/10/22 15:23:31;;;;;;;6.10;2.10;;;;;;;;;;5109885;28;20878;-67
2021/10/22 15:25:57;;;;;;;5.30;2.80;;;;;;;;;;5109478;28;20463;-67
2021/10/22 15:28:23;;;;;;;4.10;2.13;;;;;;;;;;5115145;28;20419;-67